Time;durP1;ratioP1;P1;durP2;ratioP2;P2;SDS_P1;SDS_P2;PMS_P1;PMS_P2;Temp;Humidity;BMP_temperature;BMP_pressure;BME280_temperature;BME280_humidity;BME280_pressure;Samples;Min_cycle;Max_cycle;Signal;HPM_P1;HPM_P2
2021/12/26 00:01:57;;;;;;;213.20;62.73;;;;;;;-10.18;71.84;100119.95;2085030;83;21603;-77
2021/12/26 00:04:58;;;;;;;220.17;68.07;;;;;;;-10.19;71.94;100104.13;2070081;83;21063;-77
2021/12/26 00:08:00;;;;;;;204.33;67.20;;;;;;;-10.17;71.83;100114.76;2051294;84;21623;-77
2021/12/26 00:11:03;;;;;;;211.27;69.57;;;;;;;-10.17;71.80;100114.76;2065154;83;21640;-77
2021/12/26 00:14:06;;;;;;;217.13;70.97;;;;;;;-10.03;72.09;100117.44;2075660;83;21694;-77
2021/12/26 00:17:07;;;;;;;193.73;63.50;;;;;;;-10.02;71.97;100113.56;2070070;83;21157;-77
2021/12/26 00:20:11;;;;;;;180.97;58.60;;;;;;;-10.08;71.98;100113.69;2080358;83;21093;-77
2021/12/26 00:23:14;;;;;;;183.87;57.53;;;;;;;-10.06;72.12;100113.22;2071458;83;21015;-76
2021/12/26 00:26:16;;;;;;;157.60;52.93;;;;;;;-10.08;71.72;100117.55;2074770;83;21078;-77
2021/12/26 00:29:17;;;;;;;150.03;50.37;;;;;;;-10.08;71.68;100119.27;2083269;83;21882;-77
2021/12/26 00:32:19;;;;;;;116.83;42.10;;;;;;;-10.09;71.69;100117.16;2082008;83;21011;-76
2021/12/26 00:35:22;;;;;;;122.93;44.03;;;;;;;-10.11;71.83;100116.34;2085959;83;21102;-76
2021/12/26 00:38:24;;;;;;;113.73;42.40;;;;;;;-10.14;71.61;100121.55;2090662;82;21867;-77
2021/12/26 00:41:26;;;;;;;109.93;39.43;;;;;;;-10.14;71.62;100121.55;2079319;83;21014;-77
2021/12/26 00:44:28;;;;;;;119.67;40.93;;;;;;;-10.10;71.72;100114.19;2079686;83;21492;-78
2021/12/26 00:47:30;;;;;;;122.90;40.67;;;;;;;-10.07;71.54;100106.86;2065022;83;21137;-76
2021/12/26 00:50:33;;;;;;;122.67;44.50;;;;;;;-10.17;71.45;100105.78;2072706;83;21624;-76
2021/12/26 00:53:35;;;;;;;144.13;48.73;;;;;;;-10.12;71.49;100103.56;2080427;83;21062;-76
2021/12/26 00:56:36;;;;;;;140.13;44.37;;;;;;;-10.17;71.43;100109.62;2075653;83;21090;-76
2021/12/26 00:59:38;;;;;;;155.80;52.97;;;;;;;-10.17;71.18;100107.06;2072096;83;21040;-76
2021/12/26 01:02:41;;;;;;;200.10;66.37;;;;;;;-10.28;71.15;100104.38;2056380;83;21413;-76
2021/12/26 01:05:48;;;;;;;176.33;59.77;;;;;;;-10.41;71.09;100114.11;2068866;83;21050;-76
2021/12/26 01:08:52;;;;;;;221.43;70.97;;;;;;;-10.52;71.00;100108.37;2076896;83;21082;-76
2021/12/26 01:12:00;;;;;;;161.00;56.27;;;;;;;-10.73;71.11;100104.55;2081507;82;21110;-77
2021/12/26 01:15:05;;;;;;;166.07;56.80;;;;;;;-10.74;71.21;100104.16;2085406;82;21153;-75
2021/12/26 01:18:18;;;;;;;200.07;70.20;;;;;;;-10.96;71.00;100104.59;2082675;82;21033;-75
2021/12/26 01:21:24;;;;;;;171.00;57.27;;;;;;;-11.02;71.52;100110.30;2082465;82;21099;-76
2021/12/26 01:24:28;;;;;;;171.93;55.83;;;;;;;-10.98;71.75;100102.94;2079069;82;21069;-76
2021/12/26 01:27:30;;;;;;;166.00;59.63;;;;;;;-10.91;72.15;100115.61;2079326;83;21798;-76
2021/12/26 01:30:33;;;;;;;163.87;55.20;;;;;;;-10.86;71.81;100112.95;2081896;83;21106;-75
2021/12/26 01:33:36;;;;;;;186.20;62.97;;;;;;;-10.84;71.38;100117.17;2089598;83;21073;-76
2021/12/26 01:36:52;;;;;;;200.57;63.57;;;;;;;-10.74;71.51;100110.56;2075510;83;21011;-76
2021/12/26 01:40:11;;;;;;;188.13;61.80;;;;;;;-10.61;71.25;100105.58;2083044;82;21130;-78
2021/12/26 01:43:17;;;;;;;187.90;63.23;;;;;;;-10.68;71.33;100107.41;2071169;83;21931;-75
2021/12/26 01:46:20;;;;;;;176.40;63.63;;;;;;;-10.72;71.10;100099.84;2055078;82;21035;-75
2021/12/26 01:49:28;;;;;;;177.57;59.53;;;;;;;-10.73;70.96;100098.97;2065286;83;21179;-75
2021/12/26 01:52:29;;;;;;;181.17;59.43;;;;;;;-10.82;70.86;100097.06;2060217;83;21067;-77
2021/12/26 01:55:39;;;;;;;187.07;61.03;;;;;;;-10.81;71.05;100102.17;2058748;83;21095;-76
2021/12/26 01:58:41;;;;;;;156.30;58.03;;;;;;;-10.85;70.89;100096.25;2056705;82;21999;-75
2021/12/26 02:01:58;;;;;;;181.10;61.93;;;;;;;-10.94;71.01;100090.04;2076479;82;21054;-76
2021/12/26 02:05:00;;;;;;;178.03;60.33;;;;;;;-10.88;71.25;100080.94;2058415;83;21042;-76
2021/12/26 02:08:04;;;;;;;174.03;61.13;;;;;;;-10.82;71.00;100089.38;2083154;83;21125;-77
2021/12/26 02:11:06;;;;;;;177.33;61.60;;;;;;;-10.86;70.97;100087.33;2082221;82;21988;-76
2021/12/26 02:14:07;;;;;;;170.87;63.30;;;;;;;-10.74;71.10;100092.62;2084704;83;21106;-79
2021/12/26 02:17:11;;;;;;;170.43;58.83;;;;;;;-10.77;70.98;100093.52;2089730;83;21798;-75
2021/12/26 02:20:30;;;;;;;161.93;58.37;;;;;;;-10.79;71.14;100091.87;2062208;83;21066;-76
2021/12/26 02:30:18;;;;;;;190.20;65.10;;;;;;;-10.89;71.00;100089.95;2081625;83;21061;-75
2021/12/26 02:33:22;;;;;;;177.37;65.33;;;;;;;-10.93;71.11;100081.46;2083122;83;21437;-75
2021/12/26 02:36:24;;;;;;;167.93;58.60;;;;;;;-10.97;71.11;100095.23;2082752;82;21111;-77
2021/12/26 02:39:26;;;;;;;163.83;59.33;;;;;;;-11.00;70.98;100095.30;2056157;83;22059;-76
2021/12/26 02:42:28;;;;;;;171.10;58.57;;;;;;;-11.10;71.01;100095.91;2076785;83;21102;-75
2021/12/26 02:45:31;;;;;;;168.63;58.53;;;;;;;-11.18;70.96;100090.54;2080538;82;21861;-80
2021/12/26 02:48:35;;;;;;;167.53;59.20;;;;;;;-11.27;71.05;100091.56;2090740;82;21070;-79
2021/12/26 02:51:38;;;;;;;157.50;57.80;;;;;;;-11.41;70.93;100093.56;2079194;83;21092;-75
2021/12/26 02:54:40;;;;;;;160.73;58.63;;;;;;;-11.58;71.01;100101.56;2064869;83;21078;-75
2021/12/26 02:57:47;;;;;;;157.73;55.80;;;;;;;-11.66;71.25;100104.69;2082589;83;20985;-75
2021/12/26 03:00:56;;;;;;;164.80;54.53;;;;;;;-11.75;71.19;100097.58;2066728;83;21524;-75
2021/12/26 03:03:59;;;;;;;159.70;54.80;;;;;;;-11.78;71.34;100089.13;2067771;83;21047;-75
2021/12/26 03:07:02;;;;;;;169.33;59.17;;;;;;;-11.68;71.32;100096.19;2077436;83;21057;-75
2021/12/26 03:10:10;;;;;;;167.07;56.23;;;;;;;-11.67;71.33;100090.22;2068738;83;20998;-75
2021/12/26 03:13:14;;;;;;;146.03;53.73;;;;;;;-11.77;71.35;100091.67;2083968;82;21104;-75
2021/12/26 03:16:15;;;;;;;161.87;54.40;;;;;;;-11.75;71.59;100089.91;2068191;82;21025;-75
2021/12/26 03:19:18;;;;;;;161.63;58.60;;;;;;;-11.66;71.73;100090.61;2078327;83;21049;-75
2021/12/26 03:22:24;;;;;;;165.00;57.70;;;;;;;-11.59;71.58;100093.48;2084210;82;21584;-76
2021/12/26 03:25:26;;;;;;;161.73;56.03;;;;;;;-11.61;71.27;100095.22;2079074;83;21557;-75
2021/12/26 03:28:29;;;;;;;184.90;60.57;;;;;;;-11.57;71.22;100099.39;2070702;83;21303;-75
2021/12/26 03:31:31;;;;;;;160.43;57.40;;;;;;;-11.55;71.35;100104.06;2091397;83;21019;-77
2021/12/26 03:34:32;;;;;;;159.13;55.07;;;;;;;-11.62;71.42;100098.22;2095207;83;21501;-75
2021/12/26 03:37:34;;;;;;;159.93;53.60;;;;;;;-11.55;71.62;100105.34;2075213;83;21319;-75
2021/12/26 03:40:38;;;;;;;153.10;52.60;;;;;;;-11.53;71.45;100109.56;2096626;82;21086;-76
2021/12/26 03:43:40;;;;;;;156.47;55.53;;;;;;;-11.51;71.41;100115.95;2085701;83;21144;-75
2021/12/26 03:46:43;;;;;;;152.57;53.40;;;;;;;-11.46;71.55;100116.69;2075888;83;21550;-76
2021/12/26 03:49:48;;;;;;;144.70;50.50;;;;;;;-11.35;71.33;100112.64;2063863;83;21094;-75
2021/12/26 03:52:56;;;;;;;145.30;51.27;;;;;;;-11.32;71.30;100114.73;2071657;83;21069;-75
2021/12/26 03:55:56;;;;;;;145.93;49.90;;;;;;;-11.36;70.98;100116.09;2071030;83;21022;-75
2021/12/26 03:58:59;;;;;;;144.50;52.23;;;;;;;-11.39;71.08;100111.87;2089913;83;21175;-75
2021/12/26 04:02:01;;;;;;;138.67;50.63;;;;;;;-11.42;71.07;100127.73;2056609;83;21811;-76
2021/12/26 04:05:03;;;;;;;148.43;52.23;;;;;;;-11.38;71.17;100126.35;2080180;83;21144;-75
2021/12/26 04:08:05;;;;;;;159.63;55.27;;;;;;;-11.32;71.16;100129.23;2076955;83;21085;-75
2021/12/26 04:11:08;;;;;;;151.13;51.77;;;;;;;-11.27;71.02;100133.84;2075747;82;21044;-76
2021/12/26 04:14:12;;;;;;;154.10;50.80;;;;;;;-11.19;71.00;100131.98;2077012;82;21072;-75
2021/12/26 04:17:13;;;;;;;151.50;54.10;;;;;;;-11.16;71.08;100128.52;2090967;82;21848;-76
2021/12/26 04:20:16;;;;;;;167.77;55.60;;;;;;;-11.17;70.86;100124.27;2074530;83;21050;-75
2021/12/26 04:23:18;;;;;;;180.47;55.37;;;;;;;-11.29;70.71;100131.73;2058257;84;21110;-75
2021/12/26 04:26:20;;;;;;;165.37;54.83;;;;;;;-11.27;70.98;100127.44;2074178;83;21116;-75
2021/12/26 04:29:22;;;;;;;179.30;56.93;;;;;;;-11.34;70.72;100128.44;2081162;83;21076;-75
2021/12/26 04:32:23;;;;;;;177.83;56.77;;;;;;;-11.49;70.82;100125.70;2081867;83;21107;-75
2021/12/26 04:35:25;;;;;;;148.43;52.60;;;;;;;-11.55;70.81;100127.11;2074241;83;21064;-75
2021/12/26 04:38:27;;;;;;;160.30;53.00;;;;;;;-11.59;70.84;100131.89;2078667;83;21134;-75
2021/12/26 04:41:29;;;;;;;147.73;54.13;;;;;;;-11.71;70.91;100130.39;2085664;83;21733;-75
2021/12/26 04:44:41;;;;;;;136.07;49.47;;;;;;;-11.66;71.17;100131.13;2054449;83;21629;-80
2021/12/26 04:47:50;;;;;;;155.33;52.40;;;;;;;-11.62;71.09;100128.95;2066578;83;21389;-75
2021/12/26 04:50:52;;;;;;;151.50;50.47;;;;;;;-11.53;71.11;100134.33;2075970;82;21642;-77
2021/12/26 04:53:54;;;;;;;157.20;49.40;;;;;;;-11.45;71.12;100135.48;2068202;83;21002;-75
2021/12/26 04:56:56;;;;;;;154.00;51.77;;;;;;;-11.40;70.99;100138.78;2071449;83;21296;-75
2021/12/26 04:59:57;;;;;;;143.50;50.07;;;;;;;-11.38;71.06;100135.31;2076355;83;21065;-76
2021/12/26 05:03:07;;;;;;;156.30;50.37;;;;;;;-11.32;71.10;100130.11;2069223;83;21884;-77
2021/12/26 05:06:09;;;;;;;154.75;53.38;;;;;;;-11.43;70.92;100132.43;2076432;83;21131;-77
2021/12/26 05:09:11;;;;;;;153.60;50.80;;;;;;;-11.48;71.06;100140.22;2067332;83;21066;-76
2021/12/26 05:12:12;;;;;;;143.57;51.60;;;;;;;-11.36;71.55;100138.70;2072494;83;21615;-76
2021/12/26 05:15:16;;;;;;;150.67;48.07;;;;;;;-11.17;71.65;100144.77;2066589;83;21058;-75
2021/12/26 05:18:17;;;;;;;142.20;48.07;;;;;;;-11.15;71.13;100149.41;2076803;83;21116;-76
2021/12/26 05:21:20;;;;;;;135.90;47.43;;;;;;;-11.36;70.75;100145.11;2072376;83;21082;-76
2021/12/26 05:24:22;;;;;;;146.37;49.90;;;;;;;-11.40;71.04;100146.05;2073717;83;21118;-80
2021/12/26 05:27:23;;;;;;;129.27;46.60;;;;;;;-11.51;70.94;100147.52;2087120;83;21282;-76
2021/12/26 05:30:26;;;;;;;139.60;49.30;;;;;;;-11.68;70.77;100146.11;2079515;82;21008;-78
2021/12/26 05:33:35;;;;;;;153.02;51.20;;;;;;;-11.92;70.80;100144.86;2074168;83;21093;-76
2021/12/26 05:36:38;;;;;;;137.83;46.23;;;;;;;-12.02;71.18;100149.26;2084831;83;21910;-80
2021/12/26 05:39:39;;;;;;;148.43;50.13;;;;;;;-12.15;71.04;100152.91;2076481;83;21060;-75
2021/12/26 05:42:43;;;;;;;149.50;54.37;;;;;;;-12.33;71.13;100152.31;2072516;83;21092;-75
2021/12/26 05:45:44;;;;;;;153.40;50.17;;;;;;;-12.42;71.41;100149.88;2079153;83;21109;-76
2021/12/26 05:48:48;;;;;;;142.03;48.50;;;;;;;-12.34;71.79;100157.44;2078609;82;21099;-79
2021/12/26 05:51:51;;;;;;;148.27;51.67;;;;;;;-12.21;71.93;100162.36;2072446;83;21122;-76
2021/12/26 05:54:55;;;;;;;145.83;48.93;;;;;;;-12.08;71.92;100147.64;2085591;83;21301;-77
2021/12/26 05:57:57;;;;;;;159.20;53.70;;;;;;;-11.97;71.93;100154.72;2098848;82;21966;-78
2021/12/26 06:00:59;;;;;;;141.83;51.07;;;;;;;-11.94;71.90;100144.87;2092299;83;21112;-77
2021/12/26 06:04:01;;;;;;;136.80;48.23;;;;;;;-11.93;72.07;100144.45;2058412;83;22329;-76
2021/12/26 06:07:04;;;;;;;145.93;49.00;;;;;;;-11.98;71.94;100156.03;2072127;83;21048;-75
2021/12/26 06:10:07;;;;;;;125.50;41.50;;;;;;;-12.05;71.77;100158.27;2066813;83;21441;-77
2021/12/26 06:13:09;;;;;;;132.83;45.57;;;;;;;-12.25;71.52;100159.86;2082885;82;21045;-75
2021/12/26 06:16:10;;;;;;;120.60;43.67;;;;;;;-12.44;71.70;100163.13;2070246;83;21155;-76
2021/12/26 06:19:12;;;;;;;122.97;45.57;;;;;;;-12.44;72.02;100166.53;2076032;83;21014;-75
2021/12/26 06:22:28;;;;;;;131.07;43.73;;;;;;;-12.31;72.21;100165.91;2075579;82;21061;-75
2021/12/26 06:25:48;;;;;;;117.57;43.83;;;;;;;-12.30;71.89;100166.74;2066639;83;21065;-75
2021/12/26 06:28:54;;;;;;;121.00;40.27;;;;;;;-12.22;72.22;100162.36;2069995;83;21319;-76
2021/12/26 06:32:14;;;;;;;132.17;46.23;;;;;;;-12.13;71.86;100176.31;2078991;83;21100;-80
2021/12/26 06:35:26;;;;;;;118.53;41.93;;;;;;;-12.12;71.58;100169.48;2061934;83;21131;-77
2021/12/26 06:38:45;;;;;;;122.03;43.43;;;;;;;-12.05;71.79;100177.45;2039550;83;21077;-76
2021/12/26 06:42:00;;;;;;;123.13;41.77;;;;;;;-12.02;71.62;100180.84;2061715;83;21059;-76
2021/12/26 06:45:18;;;;;;;122.77;42.70;;;;;;;-12.04;71.79;100181.28;2058553;83;21030;-73
2021/12/26 06:48:22;;;;;;;121.37;42.40;;;;;;;-12.12;71.79;100186.11;2030596;83;21082;-72
2021/12/26 06:51:23;;;;;;;112.70;39.77;;;;;;;-12.32;71.60;100194.08;2063810;83;21583;-74
2021/12/26 06:54:25;;;;;;;130.07;43.47;;;;;;;-12.37;71.92;100178.78;2077095;82;21500;-69
2021/12/26 06:57:26;;;;;;;126.33;41.83;;;;;;;-12.39;72.39;100192.02;2072700;83;21054;-76
2021/12/26 07:00:28;;;;;;;137.73;50.10;;;;;;;-12.42;72.20;100190.78;2096087;83;21332;-74
2021/12/26 07:03:30;;;;;;;145.00;51.00;;;;;;;-12.33;72.25;100186.84;2073023;83;21060;-77
2021/12/26 07:06:31;;;;;;;111.83;42.17;;;;;;;-12.28;72.00;100181.64;2069942;83;21003;-72
2021/12/26 07:09:35;;;;;;;105.50;40.80;;;;;;;-12.26;72.09;100185.87;2072788;83;21445;-74
2021/12/26 07:12:36;;;;;;;120.40;39.83;;;;;;;-12.21;72.14;100187.09;2081306;83;21108;-71
2021/12/26 07:15:49;;;;;;;114.20;42.13;;;;;;;-12.20;72.12;100184.50;2090849;83;21164;-77
2021/12/26 07:18:52;;;;;;;210.63;64.20;;;;;;;-12.17;72.10;100193.00;2063132;83;21683;-73
2021/12/26 07:21:55;;;;;;;119.80;40.33;;;;;;;-12.16;72.07;100193.41;2072335;83;21100;-76
2021/12/26 07:24:57;;;;;;;110.73;38.20;;;;;;;-12.15;72.07;100189.55;2085894;83;21042;-83
2021/12/26 07:28:00;;;;;;;120.20;41.73;;;;;;;-12.07;72.21;100201.80;2079250;83;22066;-73
2021/12/26 07:31:20;;;;;;;171.65;54.03;;;;;;;-11.79;72.44;100203.47;2082866;82;21026;-70
2021/12/26 07:34:23;;;;;;;308.37;74.47;;;;;;;-11.55;72.30;100206.48;2087177;83;21133;-72
2021/12/26 07:37:26;;;;;;;628.60;132.93;;;;;;;-11.44;71.91;100217.39;2069392;83;21104;-73
2021/12/26 07:40:28;;;;;;;646.97;130.97;;;;;;;-11.40;71.85;100223.30;2076921;83;21849;-74
2021/12/26 07:43:30;;;;;;;193.83;53.07;;;;;;;-11.18;72.16;100228.45;2082323;83;21109;-71
2021/12/26 07:46:51;;;;;;;145.15;48.05;;;;;;;-10.88;72.35;100221.08;2083291;83;21057;-75
2021/12/26 07:49:53;;;;;;;145.30;51.30;;;;;;;-10.45;72.46;100225.34;2079317;83;21928;-76
2021/12/26 07:53:13;;;;;;;185.37;60.33;;;;;;;-10.10;72.36;100215.58;2051693;83;21069;-76
2021/12/26 07:56:33;;;;;;;137.00;50.75;;;;;;;-9.71;72.43;100216.82;2065551;83;21119;-75
2021/12/26 07:59:53;;;;;;;151.53;51.53;;;;;;;-9.25;72.29;100207.95;2081959;83;21014;-75
2021/12/26 08:03:13;;;;;;;173.70;61.03;;;;;;;-8.91;72.18;100218.62;2078282;83;21109;-75
2021/12/26 08:06:33;;;;;;;145.22;54.88;;;;;;;-8.45;72.31;100213.02;2079974;83;21091;-76
2021/12/26 08:09:35;;;;;;;152.23;56.33;;;;;;;-8.10;71.70;100208.53;2055955;83;21107;-76
2021/12/26 08:12:37;;;;;;;149.93;54.77;;;;;;;-7.86;71.80;100206.91;2086338;83;21074;-83
2021/12/26 08:15:39;;;;;;;136.43;52.40;;;;;;;-7.44;72.03;100198.23;2080920;83;21559;-80
2021/12/26 08:18:42;;;;;;;134.57;49.70;;;;;;;-7.01;71.89;100201.09;2085540;83;21858;-79
2021/12/26 08:21:44;;;;;;;138.03;51.77;;;;;;;-6.45;71.96;100202.52;2095899;82;21006;-76
2021/12/26 08:24:45;;;;;;;133.77;51.37;;;;;;;-5.91;71.85;100200.00;2081773;83;21115;-78
2021/12/26 08:27:47;;;;;;;125.03;50.83;;;;;;;-5.42;71.70;100191.09;2066787;83;21081;-74
2021/12/26 08:30:49;;;;;;;155.93;57.53;;;;;;;-5.24;70.15;100193.80;2077357;83;21127;-75
2021/12/26 08:33:50;;;;;;;156.80;56.43;;;;;;;-5.39;69.97;100190.12;2071858;83;21080;-76
2021/12/26 08:37:01;;;;;;;142.83;51.20;;;;;;;-5.38;70.08;100178.02;2076824;83;21323;-74
2021/12/26 08:40:05;;;;;;;129.33;47.40;;;;;;;-5.13;70.48;100185.13;2077437;83;21083;-76
2021/12/26 08:43:07;;;;;;;111.27;45.83;;;;;;;-4.98;69.84;100194.00;2080834;83;21096;-77
2021/12/26 08:46:12;;;;;;;108.35;42.78;;;;;;;-4.75;70.21;100191.70;2082595;83;21536;-81
2021/12/26 08:49:15;;;;;;;111.08;43.92;;;;;;;-4.48;69.86;100193.95;2085917;82;21034;-78
2021/12/26 08:52:16;;;;;;;103.30;42.88;;;;;;;-4.29;69.88;100197.38;2080898;83;21058;-78
2021/12/26 08:55:19;;;;;;;102.65;41.73;;;;;;;-4.06;70.03;100189.37;2082480;83;21422;-77
2021/12/26 08:58:21;;;;;;;97.37;40.70;;;;;;;-3.65;69.90;100199.99;2077090;83;21074;-76
2021/12/26 09:01:23;;;;;;;87.97;37.20;;;;;;;-3.41;69.46;100200.53;2083052;83;21119;-77
2021/12/26 09:04:24;;;;;;;100.33;44.15;;;;;;;-3.31;68.78;100196.57;2081046;83;21616;-77
2021/12/26 09:07:26;;;;;;;90.30;38.55;;;;;;;-3.20;69.16;100190.38;2070961;83;21543;-76
2021/12/26 09:10:27;;;;;;;89.45;36.30;;;;;;;-3.20;68.52;100190.84;2090322;83;21515;-76
2021/12/26 09:13:29;;;;;;;88.72;36.98;;;;;;;-3.06;68.73;100192.74;2077719;83;21477;-78
2021/12/26 09:16:33;;;;;;;91.00;38.83;;;;;;;-3.09;68.21;100195.03;2071531;82;21043;-77
2021/12/26 09:19:35;;;;;;;79.72;36.23;;;;;;;-3.00;68.27;100201.52;2074981;83;21057;-78
2021/12/26 09:22:37;;;;;;;84.45;34.92;;;;;;;-3.11;68.17;100198.62;2079665;83;21065;-77
2021/12/26 09:25:39;;;;;;;91.37;38.88;;;;;;;-3.15;68.02;100207.03;2074247;83;21065;-77
2021/12/26 09:28:41;;;;;;;85.70;38.40;;;;;;;-3.07;68.32;100210.52;2092167;82;21057;-78
2021/12/26 09:31:42;;;;;;;85.30;36.08;;;;;;;-2.81;68.41;100208.74;2085001;82;21036;-77
2021/12/26 09:34:44;;;;;;;86.80;36.03;;;;;;;-2.81;68.21;100206.61;2074395;83;21028;-78
2021/12/26 09:37:46;;;;;;;75.32;32.25;;;;;;;-2.68;68.07;100210.69;2084283;83;21069;-76
2021/12/26 09:40:47;;;;;;;81.12;33.88;;;;;;;-2.63;67.40;100200.44;2079462;83;21026;-76
2021/12/26 09:43:49;;;;;;;77.62;35.03;;;;;;;-2.66;67.66;100204.96;2087884;83;21505;-82
2021/12/26 09:46:51;;;;;;;82.10;35.90;;;;;;;-2.68;67.59;100202.89;2073237;83;21041;-78
2021/12/26 09:49:54;;;;;;;78.65;33.63;;;;;;;-2.78;67.53;100198.19;2074165;83;21140;-77
2021/12/26 09:52:55;;;;;;;71.65;33.55;;;;;;;-2.62;67.85;100196.08;2086375;83;21070;-77
2021/12/26 09:55:57;;;;;;;76.05;33.65;;;;;;;-2.57;67.42;100200.11;2082309;82;21510;-80
2021/12/26 09:59:06;;;;;;;80.83;35.15;;;;;;;-2.47;67.37;100199.17;2068019;83;21634;-77
2021/12/26 10:02:12;;;;;;;65.72;30.92;;;;;;;-2.29;67.87;100198.17;2071500;83;21091;-77
2021/12/26 10:05:13;;;;;;;64.80;28.65;;;;;;;-2.16;67.27;100197.05;2089385;82;21021;-78
2021/12/26 10:08:15;;;;;;;67.42;28.45;;;;;;;-2.14;66.77;100190.02;2085110;83;21025;-72
2021/12/26 10:11:19;;;;;;;66.85;31.87;;;;;;;-2.26;66.88;100199.30;2075115;83;21005;-72
2021/12/26 10:14:33;;;;;;;65.90;29.85;;;;;;;-2.33;67.14;100199.73;2092924;83;21309;-74
2021/12/26 10:17:34;;;;;;;71.30;29.80;;;;;;;-2.37;66.75;100196.44;2072628;83;21130;-74
2021/12/26 10:20:36;;;;;;;75.52;31.75;;;;;;;-2.45;66.28;100188.21;2065655;83;21382;-74
2021/12/26 10:23:37;;;;;;;69.07;31.30;;;;;;;-2.72;66.26;100186.17;2093404;83;21097;-74
2021/12/26 10:26:50;;;;;;;70.32;31.35;;;;;;;-2.76;67.01;100186.41;2085319;83;21012;-74
2021/12/26 10:29:56;;;;;;;79.07;33.42;;;;;;;-2.68;67.21;100180.81;2080088;83;21041;-73
2021/12/26 10:32:59;;;;;;;64.87;29.52;;;;;;;-2.62;67.17;100183.95;2084531;83;21401;-73
2021/12/26 10:36:08;;;;;;;71.85;31.73;;;;;;;-2.57;67.21;100184.98;2050524;84;21122;-74
2021/12/26 10:39:14;;;;;;;72.22;31.95;;;;;;;-2.59;67.13;100184.22;2085470;83;21176;-73
2021/12/26 10:42:29;;;;;;;75.78;33.30;;;;;;;-2.55;67.32;100180.55;2082939;83;21050;-74
2021/12/26 10:45:35;;;;;;;75.45;32.93;;;;;;;-2.41;67.37;100177.22;2079653;83;21556;-74
2021/12/26 10:48:36;;;;;;;71.10;32.23;;;;;;;-2.24;67.57;100181.03;2076648;83;21069;-72
2021/12/26 10:51:38;;;;;;;73.40;30.25;;;;;;;-2.00;67.58;100183.20;2093576;82;21049;-72
2021/12/26 10:54:44;;;;;;;66.33;28.87;;;;;;;-1.86;67.49;100181.97;2092969;82;21109;-73
2021/12/26 10:57:46;;;;;;;65.47;28.47;;;;;;;-1.82;67.16;100181.72;2063804;83;21025;-72
2021/12/26 11:00:56;;;;;;;62.85;27.52;;;;;;;-1.80;66.83;100190.75;2077203;83;21110;-72
2021/12/26 11:04:06;;;;;;;59.40;26.52;;;;;;;-1.87;66.49;100194.60;2078657;83;21099;-72
2021/12/26 11:07:10;;;;;;;62.13;26.40;;;;;;;-2.05;66.21;100191.27;2090357;83;21470;-71
2021/12/26 11:10:23;;;;;;;56.68;24.85;;;;;;;-2.15;66.56;100188.79;2083575;83;21034;-72
2021/12/26 11:13:31;;;;;;;51.95;24.07;;;;;;;-2.18;66.89;100196.76;2071107;83;21576;-75
2021/12/26 11:16:40;;;;;;;55.65;23.65;;;;;;;-2.14;66.70;100199.12;2079580;83;21034;-72
2021/12/26 11:19:46;;;;;;;49.40;21.37;;;;;;;-2.27;66.15;100202.83;2071226;83;21068;-70
2021/12/26 11:22:47;;;;;;;55.23;23.85;;;;;;;-2.42;66.38;100202.80;2082356;83;21131;-71
2021/12/26 11:25:59;;;;;;;59.70;24.95;;;;;;;-2.41;66.60;100198.84;2091705;82;21064;-70
2021/12/26 11:29:00;;;;;;;59.23;26.37;;;;;;;-2.43;66.22;100199.38;2069995;83;21587;-70
2021/12/26 11:32:03;;;;;;;60.38;26.68;;;;;;;-2.55;66.74;100189.18;2094926;83;21029;-70
2021/12/26 11:35:07;;;;;;;69.53;30.08;;;;;;;-2.42;66.98;100189.81;2075857;83;21058;-70
2021/12/26 11:38:16;;;;;;;60.05;24.63;;;;;;;-2.41;66.55;100181.95;2077241;82;21853;-73
2021/12/26 11:42:07;;;;;;;64.82;28.57;;;;;;;-2.52;66.12;100175.19;2081671;82;21055;-73
2021/12/26 11:45:54;;;;;;;56.23;27.65;;;;;;;-2.67;66.49;100169.53;2064750;83;21054;-76
2021/12/26 11:50:03;;;;;;;59.15;24.85;;;;;;;-3.04;66.41;100174.88;2074299;83;21580;-73
2021/12/26 11:53:33;;;;;;;59.58;24.87;;;;;;;-3.20;66.64;100176.58;2069608;83;21135;-73
2021/12/26 11:56:51;;;;;;;54.73;23.00;;;;;;;-3.35;66.58;100167.81;2072634;83;21064;-76
2021/12/26 12:00:10;;;;;;;45.60;21.48;;;;;;;-3.52;66.97;100166.49;2074887;83;21051;-76
2021/12/26 12:03:27;;;;;;;51.10;21.27;;;;;;;-3.59;66.69;100166.43;2084937;83;21096;-73
2021/12/26 12:06:29;;;;;;;47.27;20.10;;;;;;;-3.72;66.94;100170.91;2061824;83;21836;-78
2021/12/26 12:09:38;;;;;;;45.78;19.50;;;;;;;-3.78;66.80;100169.91;2074749;82;21163;-77
2021/12/26 12:12:42;;;;;;;44.18;19.17;;;;;;;-3.75;66.89;100165.87;2088277;83;21098;-75
2021/12/26 12:15:56;;;;;;;42.20;19.55;;;;;;;-3.74;66.81;100175.34;2064913;83;21403;-75
2021/12/26 12:19:04;;;;;;;45.88;20.68;;;;;;;-3.76;66.83;100170.69;2081340;83;21091;-86
2021/12/26 12:22:06;;;;;;;46.70;19.67;;;;;;;-3.74;67.25;100165.44;2066623;83;21143;-76
2021/12/26 12:25:39;;;;;;;48.35;20.32;;;;;;;-3.77;67.08;100166.42;2080978;83;21137;-78
2021/12/26 12:28:44;;;;;;;38.90;16.48;;;;;;;-3.74;66.85;100168.03;2079598;83;21100;-77
2021/12/26 12:31:46;;;;;;;39.80;16.32;;;;;;;-3.85;66.36;100164.66;2080379;83;21023;-74
2021/12/26 12:35:02;;;;;;;46.60;18.55;;;;;;;-3.95;66.39;100160.35;2089792;83;21076;-84
2021/12/26 12:38:23;;;;;;;35.43;14.70;;;;;;;-3.99;67.11;100156.24;2054786;84;21343;-72
2021/12/26 12:41:38;;;;;;;37.10;14.38;;;;;;;-3.93;67.08;100151.22;2081100;82;21033;-71
2021/12/26 12:44:44;;;;;;;41.77;17.35;;;;;;;-3.93;67.03;100156.41;2077369;83;21174;-73
2021/12/26 12:47:45;;;;;;;43.20;19.17;;;;;;;-4.01;66.77;100156.77;2052003;83;21713;-73
2021/12/26 12:50:46;;;;;;;41.37;16.70;;;;;;;-4.04;66.92;100148.30;2069015;83;21432;-76
2021/12/26 12:54:04;;;;;;;39.75;17.07;;;;;;;-4.01;66.89;100140.38;2075958;83;21034;-78
2021/12/26 12:57:07;;;;;;;31.42;13.55;;;;;;;-3.95;67.02;100138.78;2083127;83;22253;-73
2021/12/26 13:00:32;;;;;;;34.20;16.60;;;;;;;-3.94;66.75;100140.45;2082305;83;21065;-70
2021/12/26 13:03:34;;;;;;;38.30;16.32;;;;;;;-4.00;66.59;100142.05;2084246;82;21093;-67
2021/12/26 13:06:39;;;;;;;31.85;14.28;;;;;;;-4.04;66.90;100135.34;2065937;83;21124;-69
2021/12/26 13:09:39;;;;;;;28.65;12.63;;;;;;;-3.95;66.88;100132.30;2089503;82;21168;-69
2021/12/26 13:12:43;;;;;;;32.03;13.72;;;;;;;-3.93;65.90;100128.72;2075619;83;21550;-69
2021/12/26 13:16:01;;;;;;;33.78;14.23;;;;;;;-3.89;66.45;100130.23;2054804;83;21081;-71
2021/12/26 13:19:09;;;;;;;34.03;14.18;;;;;;;-3.89;66.48;100123.75;2073508;83;21068;-70
2021/12/26 13:22:10;;;;;;;38.85;14.85;;;;;;;-3.89;66.48;100122.92;2083571;83;21062;-69
2021/12/26 13:25:31;;;;;;;34.55;13.13;;;;;;;-3.87;66.73;100124.53;2088192;83;21041;-69
2021/12/26 13:28:35;;;;;;;33.08;13.03;;;;;;;-3.86;66.39;100119.75;2090815;83;21069;-72
2021/12/26 13:31:36;;;;;;;32.35;13.22;;;;;;;-3.92;66.40;100120.48;2064567;83;21374;-73
2021/12/26 13:34:38;;;;;;;31.42;12.88;;;;;;;-3.93;66.47;100128.72;2092384;82;21062;-72
2021/12/26 13:37:40;;;;;;;29.48;11.93;;;;;;;-3.92;66.65;100121.78;2088035;83;21331;-71
2021/12/26 13:40:47;;;;;;;36.55;15.95;;;;;;;-3.93;66.56;100126.13;2085763;83;21078;-72
2021/12/26 13:43:50;;;;;;;46.80;20.40;;;;;;;-4.01;66.83;100131.30;2068954;83;21112;-77
2021/12/26 13:46:59;;;;;;;41.25;18.27;;;;;;;-4.11;67.10;100121.39;2080260;83;21014;-68
2021/12/26 13:50:10;;;;;;;37.30;15.83;;;;;;;-4.15;67.31;100126.31;2083029;83;21659;-74
2021/12/26 13:53:12;;;;;;;44.60;18.35;;;;;;;-4.17;67.35;100128.59;2070871;83;21202;-70
2021/12/26 13:56:14;;;;;;;34.85;14.13;;;;;;;-4.26;67.05;100135.05;2079311;82;21010;-74
2021/12/26 13:59:44;;;;;;;31.12;13.70;;;;;;;-4.33;67.34;100146.63;2086136;82;21087;-75